sensor_id;sensor_type;location;lat;lon;timestamp;P1;durP1;ratioP1;P2;durP2;ratioP2
2874;SDS011;1445;52.600;13.328;2023-02-21T00:01:50;11.80;;;6.30;;
2874;SDS011;1445;52.600;13.328;2023-02-21T01:45:47;22.02;;;10.82;;
2874;SDS011;1445;52.600;13.328;2023-02-21T01:48:33;21.80;;;10.77;;
2874;SDS011;1445;52.600;13.328;2023-02-21T01:54:04;21.83;;;9.70;;
2874;SDS011;1445;52.600;13.328;2023-02-21T01:56:51;22.50;;;10.95;;
2874;SDS011;1445;52.600;13.328;2023-02-21T01:59:37;23.98;;;11.80;;
2874;SDS011;1445;52.600;13.328;2023-02-21T02:05:15;22.83;;;11.07;;
2874;SDS011;1445;52.600;13.328;2023-02-21T02:08:00;22.80;;;11.20;;
2874;SDS011;1445;52.600;13.328;2023-02-21T02:10:44;21.58;;;11.18;;
2874;SDS011;1445;52.600;13.328;2023-02-21T02:13:34;23.63;;;11.60;;
2874;SDS011;1445;52.600;13.328;2023-02-21T02:35:37;17.08;;;9.00;;
2874;SDS011;1445;52.600;13.328;2023-02-21T02:38:18;20.83;;;10.85;;
2874;SDS011;1445;52.600;13.328;2023-02-21T02:41:03;19.55;;;10.77;;
2874;SDS011;1445;52.600;13.328;2023-02-21T02:43:42;18.83;;;9.68;;
2874;SDS011;1445;52.600;13.328;2023-02-21T02:48:45;17.45;;;9.35;;
2874;SDS011;1445;52.600;13.328;2023-02-21T02:51:17;17.77;;;9.27;;
2874;SDS011;1445;52.600;13.328;2023-02-21T02:53:43;15.52;;;8.65;;
2874;SDS011;1445;52.600;13.328;2023-02-21T02:56:10;15.20;;;9.23;;
2874;SDS011;1445;52.600;13.328;2023-02-21T03:06:21;13.75;;;8.35;;
2874;SDS011;1445;52.600;13.328;2023-02-21T03:12:01;15.27;;;7.93;;
2874;SDS011;1445;52.600;13.328;2023-02-21T03:14:29;15.98;;;8.98;;
2874;SDS011;1445;52.600;13.328;2023-02-21T03:17:18;15.40;;;8.13;;
2874;SDS011;1445;52.600;13.328;2023-02-21T03:19:47;12.50;;;7.57;;
2874;SDS011;1445;52.600;13.328;2023-02-21T03:22:17;14.65;;;8.05;;
2874;SDS011;1445;52.600;13.328;2023-02-21T03:24:46;14.77;;;8.15;;
2874;SDS011;1445;52.600;13.328;2023-02-21T03:27:14;15.52;;;9.20;;
2874;SDS011;1445;52.600;13.328;2023-02-21T03:29:42;15.10;;;8.38;;
2874;SDS011;1445;52.600;13.328;2023-02-21T03:32:08;14.60;;;8.95;;
2874;SDS011;1445;52.600;13.328;2023-02-21T03:34:39;14.38;;;8.05;;
2874;SDS011;1445;52.600;13.328;2023-02-21T03:37:07;15.43;;;7.78;;
2874;SDS011;1445;52.600;13.328;2023-02-21T03:39:34;15.30;;;7.57;;
2874;SDS011;1445;52.600;13.328;2023-02-21T03:41:59;14.15;;;7.85;;
2874;SDS011;1445;52.600;13.328;2023-02-21T03:44:25;14.73;;;8.40;;
2874;SDS011;1445;52.600;13.328;2023-02-21T03:46:50;13.90;;;8.15;;
2874;SDS011;1445;52.600;13.328;2023-02-21T03:49:16;13.80;;;8.27;;
2874;SDS011;1445;52.600;13.328;2023-02-21T03:51:41;15.00;;;8.40;;
2874;SDS011;1445;52.600;13.328;2023-02-21T03:54:09;15.13;;;7.85;;
2874;SDS011;1445;52.600;13.328;2023-02-21T03:56:35;15.15;;;7.45;;
2874;SDS011;1445;52.600;13.328;2023-02-21T03:59:00;13.68;;;7.70;;
2874;SDS011;1445;52.600;13.328;2023-02-21T04:01:26;13.98;;;7.65;;
2874;SDS011;1445;52.600;13.328;2023-02-21T04:03:51;14.82;;;8.63;;
2874;SDS011;1445;52.600;13.328;2023-02-21T04:06:17;13.57;;;7.60;;
2874;SDS011;1445;52.600;13.328;2023-02-21T04:08:42;13.65;;;8.20;;
2874;SDS011;1445;52.600;13.328;2023-02-21T04:11:07;13.15;;;7.93;;
2874;SDS011;1445;52.600;13.328;2023-02-21T04:13:33;16.70;;;8.18;;
2874;SDS011;1445;52.600;13.328;2023-02-21T04:15:58;12.13;;;7.43;;
2874;SDS011;1445;52.600;13.328;2023-02-21T04:18:24;12.20;;;7.32;;
2874;SDS011;1445;52.600;13.328;2023-02-21T04:20:49;9.65;;;6.30;;
2874;SDS011;1445;52.600;13.328;2023-02-21T04:23:16;11.98;;;7.40;;
2874;SDS011;1445;52.600;13.328;2023-02-21T04:25:45;10.25;;;6.60;;
2874;SDS011;1445;52.600;13.328;2023-02-21T04:28:10;11.95;;;7.32;;
2874;SDS011;1445;52.600;13.328;2023-02-21T04:30:36;11.07;;;6.63;;
2874;SDS011;1445;52.600;13.328;2023-02-21T04:33:01;11.40;;;7.10;;
2874;SDS011;1445;52.600;13.328;2023-02-21T04:35:27;13.05;;;7.32;;
2874;SDS011;1445;52.600;13.328;2023-02-21T04:37:53;12.98;;;8.05;;
2874;SDS011;1445;52.600;13.328;2023-02-21T04:40:21;13.52;;;7.55;;
2874;SDS011;1445;52.600;13.328;2023-02-21T04:42:47;14.93;;;7.88;;
2874;SDS011;1445;52.600;13.328;2023-02-21T04:45:12;13.43;;;7.20;;
2874;SDS011;1445;52.600;13.328;2023-02-21T04:47:39;13.38;;;8.35;;
2874;SDS011;1445;52.600;13.328;2023-02-21T04:50:04;13.00;;;7.50;;
2874;SDS011;1445;52.600;13.328;2023-02-21T04:52:30;14.90;;;8.15;;
2874;SDS011;1445;52.600;13.328;2023-02-21T04:54:56;13.77;;;7.97;;
2874;SDS011;1445;52.600;13.328;2023-02-21T04:57:22;14.25;;;7.65;;
2874;SDS011;1445;52.600;13.328;2023-02-21T04:59:47;14.75;;;8.48;;
2874;SDS011;1445;52.600;13.328;2023-02-21T05:02:13;15.85;;;8.98;;
2874;SDS011;1445;52.600;13.328;2023-02-21T05:04:38;15.38;;;8.50;;
2874;SDS011;1445;52.600;13.328;2023-02-21T05:07:05;21.40;;;10.00;;
2874;SDS011;1445;52.600;13.328;2023-02-21T05:09:31;19.00;;;9.40;;
2874;SDS011;1445;52.600;13.328;2023-02-21T05:11:56;19.10;;;9.57;;
2874;SDS011;1445;52.600;13.328;2023-02-21T05:14:22;22.02;;;11.40;;
2874;SDS011;1445;52.600;13.328;2023-02-21T05:16:47;23.80;;;11.10;;
2874;SDS011;1445;52.600;13.328;2023-02-21T05:19:16;21.55;;;10.45;;
2874;SDS011;1445;52.600;13.328;2023-02-21T05:21:51;25.92;;;11.75;;
2874;SDS011;1445;52.600;13.328;2023-02-21T05:24:18;27.08;;;11.88;;
2874;SDS011;1445;52.600;13.328;2023-02-21T05:26:43;23.88;;;10.95;;
2874;SDS011;1445;52.600;13.328;2023-02-21T05:29:08;27.20;;;11.95;;
2874;SDS011;1445;52.600;13.328;2023-02-21T05:31:34;26.65;;;11.70;;
2874;SDS011;1445;52.600;13.328;2023-02-21T05:33:59;24.52;;;11.50;;
2874;SDS011;1445;52.600;13.328;2023-02-21T05:36:25;21.83;;;10.68;;
2874;SDS011;1445;52.600;13.328;2023-02-21T05:38:53;23.55;;;10.20;;
2874;SDS011;1445;52.600;13.328;2023-02-21T05:41:19;26.70;;;11.65;;
2874;SDS011;1445;52.600;13.328;2023-02-21T05:43:46;22.90;;;10.38;;
2874;SDS011;1445;52.600;13.328;2023-02-21T05:46:21;25.27;;;10.30;;
2874;SDS011;1445;52.600;13.328;2023-02-21T05:48:46;22.73;;;10.68;;
2874;SDS011;1445;52.600;13.328;2023-02-21T05:51:12;27.38;;;11.45;;
2874;SDS011;1445;52.600;13.328;2023-02-21T05:53:39;26.75;;;11.40;;
2874;SDS011;1445;52.600;13.328;2023-02-21T05:56:04;26.35;;;10.45;;
2874;SDS011;1445;52.600;13.328;2023-02-21T05:58:30;24.25;;;10.13;;
2874;SDS011;1445;52.600;13.328;2023-02-21T06:00:55;21.35;;;9.93;;
2874;SDS011;1445;52.600;13.328;2023-02-21T06:03:20;21.92;;;9.52;;
2874;SDS011;1445;52.600;13.328;2023-02-21T06:05:46;19.98;;;8.32;;
2874;SDS011;1445;52.600;13.328;2023-02-21T06:08:11;19.92;;;9.00;;
2874;SDS011;1445;52.600;13.328;2023-02-21T06:10:37;19.85;;;8.52;;
2874;SDS011;1445;52.600;13.328;2023-02-21T06:13:02;20.73;;;8.73;;
2874;SDS011;1445;52.600;13.328;2023-02-21T06:15:27;18.98;;;8.13;;
2874;SDS011;1445;52.600;13.328;2023-02-21T06:17:53;16.65;;;8.07;;
2874;SDS011;1445;52.600;13.328;2023-02-21T06:20:18;17.15;;;7.65;;
2874;SDS011;1445;52.600;13.328;2023-02-21T06:22:43;14.45;;;7.25;;
2874;SDS011;1445;52.600;13.328;2023-02-21T06:25:09;14.88;;;7.63;;
2874;SDS011;1445;52.600;13.328;2023-02-21T06:27:35;13.25;;;6.03;;
2874;SDS011;1445;52.600;13.328;2023-02-21T06:30:01;10.80;;;5.57;;
2874;SDS011;1445;52.600;13.328;2023-02-21T06:32:27;9.13;;;4.95;;
2874;SDS011;1445;52.600;13.328;2023-02-21T06:34:52;9.75;;;5.40;;
2874;SDS011;1445;52.600;13.328;2023-02-21T06:37:18;8.88;;;4.75;;
2874;SDS011;1445;52.600;13.328;2023-02-21T06:39:44;10.20;;;5.78;;
2874;SDS011;1445;52.600;13.328;2023-02-21T06:42:13;10.43;;;5.10;;
2874;SDS011;1445;52.600;13.328;2023-02-21T06:44:41;7.90;;;4.55;;
2874;SDS011;1445;52.600;13.328;2023-02-21T06:47:08;9.13;;;5.00;;
2874;SDS011;1445;52.600;13.328;2023-02-21T06:49:34;9.13;;;4.38;;
2874;SDS011;1445;52.600;13.328;2023-02-21T06:51:59;7.95;;;4.13;;
2874;SDS011;1445;52.600;13.328;2023-02-21T06:54:24;12.88;;;5.07;;
2874;SDS011;1445;52.600;13.328;2023-02-21T06:56:50;6.47;;;3.83;;
2874;SDS011;1445;52.600;13.328;2023-02-21T06:59:15;7.15;;;3.83;;
2874;SDS011;1445;52.600;13.328;2023-02-21T07:01:41;8.45;;;4.00;;
2874;SDS011;1445;52.600;13.328;2023-02-21T07:04:06;7.60;;;4.03;;
2874;SDS011;1445;52.600;13.328;2023-02-21T07:06:32;7.85;;;3.97;;
2874;SDS011;1445;52.600;13.328;2023-02-21T07:08:57;8.50;;;4.22;;
2874;SDS011;1445;52.600;13.328;2023-02-21T07:11:23;7.68;;;3.75;;
2874;SDS011;1445;52.600;13.328;2023-02-21T07:13:52;6.55;;;3.78;;
2874;SDS011;1445;52.600;13.328;2023-02-21T07:16:18;5.82;;;3.25;;
2874;SDS011;1445;52.600;13.328;2023-02-21T07:18:45;6.43;;;3.13;;
2874;SDS011;1445;52.600;13.328;2023-02-21T07:21:12;6.60;;;3.63;;
2874;SDS011;1445;52.600;13.328;2023-02-21T07:23:38;5.28;;;2.97;;
2874;SDS011;1445;52.600;13.328;2023-02-21T07:26:04;6.65;;;3.65;;
2874;SDS011;1445;52.600;13.328;2023-02-21T07:28:29;7.43;;;3.60;;
2874;SDS011;1445;52.600;13.328;2023-02-21T07:30:55;7.95;;;4.68;;
2874;SDS011;1445;52.600;13.328;2023-02-21T07:33:20;7.43;;;4.63;;
2874;SDS011;1445;52.600;13.328;2023-02-21T07:35:45;7.00;;;3.67;;
2874;SDS011;1445;52.600;13.328;2023-02-21T07:38:27;7.72;;;3.53;;
2874;SDS011;1445;52.600;13.328;2023-02-21T07:40:54;7.60;;;3.40;;
2874;SDS011;1445;52.600;13.328;2023-02-21T07:43:25;5.72;;;3.22;;
2874;SDS011;1445;52.600;13.328;2023-02-21T07:45:51;6.80;;;2.80;;
2874;SDS011;1445;52.600;13.328;2023-02-21T07:48:16;5.00;;;2.78;;
2874;SDS011;1445;52.600;13.328;2023-02-21T07:50:42;4.78;;;2.80;;
2874;SDS011;1445;52.600;13.328;2023-02-21T07:53:09;4.35;;;2.70;;
2874;SDS011;1445;52.600;13.328;2023-02-21T07:55:35;4.40;;;2.35;;
2874;SDS011;1445;52.600;13.328;2023-02-21T07:58:01;4.15;;;2.33;;
2874;SDS011;1445;52.600;13.328;2023-02-21T08:00:26;4.22;;;2.25;;
2874;SDS011;1445;52.600;13.328;2023-02-21T08:02:52;3.35;;;2.00;;
2874;SDS011;1445;52.600;13.328;2023-02-21T08:05:18;3.50;;;1.90;;
2874;SDS011;1445;52.600;13.328;2023-02-21T08:07:44;3.90;;;2.35;;
2874;SDS011;1445;52.600;13.328;2023-02-21T08:10:10;3.97;;;2.30;;
2874;SDS011;1445;52.600;13.328;2023-02-21T08:12:37;3.17;;;1.70;;
2874;SDS011;1445;52.600;13.328;2023-02-21T08:15:02;2.05;;;1.60;;
2874;SDS011;1445;52.600;13.328;2023-02-21T08:17:30;2.65;;;1.70;;
2874;SDS011;1445;52.600;13.328;2023-02-21T08:19:55;2.97;;;1.73;;
2874;SDS011;1445;52.600;13.328;2023-02-21T08:22:20;2.53;;;1.50;;
2874;SDS011;1445;52.600;13.328;2023-02-21T08:24:49;2.10;;;1.38;;
2874;SDS011;1445;52.600;13.328;2023-02-21T08:27:15;2.13;;;1.52;;
2874;SDS011;1445;52.600;13.328;2023-02-21T08:29:41;1.90;;;1.30;;
2874;SDS011;1445;52.600;13.328;2023-02-21T08:32:06;2.13;;;1.23;;
2874;SDS011;1445;52.600;13.328;2023-02-21T08:34:33;1.98;;;1.33;;
2874;SDS011;1445;52.600;13.328;2023-02-21T08:36:58;1.98;;;1.00;;
2874;SDS011;1445;52.600;13.328;2023-02-21T08:39:24;1.98;;;1.30;;
2874;SDS011;1445;52.600;13.328;2023-02-21T08:41:51;1.40;;;1.08;;
2874;SDS011;1445;52.600;13.328;2023-02-21T08:44:17;2.47;;;1.10;;
2874;SDS011;1445;52.600;13.328;2023-02-21T08:46:45;2.17;;;1.33;;
2874;SDS011;1445;52.600;13.328;2023-02-21T08:49:11;1.80;;;0.85;;
2874;SDS011;1445;52.600;13.328;2023-02-21T08:51:36;1.58;;;0.90;;
2874;SDS011;1445;52.600;13.328;2023-02-21T08:54:02;2.25;;;1.30;;
2874;SDS011;1445;52.600;13.328;2023-02-21T08:56:28;2.85;;;1.00;;
2874;SDS011;1445;52.600;13.328;2023-02-21T08:58:54;1.40;;;1.20;;
2874;SDS011;1445;52.600;13.328;2023-02-21T09:01:21;3.35;;;1.13;;
2874;SDS011;1445;52.600;13.328;2023-02-21T09:03:47;2.03;;;1.20;;
2874;SDS011;1445;52.600;13.328;2023-02-21T09:06:13;2.63;;;1.20;;
2874;SDS011;1445;52.600;13.328;2023-02-21T09:08:38;2.90;;;1.00;;
2874;SDS011;1445;52.600;13.328;2023-02-21T09:11:05;3.15;;;1.60;;
2874;SDS011;1445;52.600;13.328;2023-02-21T09:13:31;1.83;;;1.00;;
2874;SDS011;1445;52.600;13.328;2023-02-21T09:15:58;2.10;;;1.00;;
2874;SDS011;1445;52.600;13.328;2023-02-21T09:18:25;1.92;;;1.60;;
2874;SDS011;1445;52.600;13.328;2023-02-21T09:20:51;3.10;;;1.13;;
2874;SDS011;1445;52.600;13.328;2023-02-21T09:23:21;2.95;;;1.02;;
2874;SDS011;1445;52.600;13.328;2023-02-21T09:25:51;2.92;;;1.08;;
2874;SDS011;1445;52.600;13.328;2023-02-21T09:28:18;2.60;;;0.98;;
2874;SDS011;1445;52.600;13.328;2023-02-21T09:30:44;4.40;;;1.63;;
2874;SDS011;1445;52.600;13.328;2023-02-21T09:33:10;3.05;;;1.05;;
2874;SDS011;1445;52.600;13.328;2023-02-21T09:35:36;5.03;;;1.40;;
2874;SDS011;1445;52.600;13.328;2023-02-21T09:38:02;6.25;;;1.65;;
2874;SDS011;1445;52.600;13.328;2023-02-21T09:40:42;8.82;;;1.88;;
2874;SDS011;1445;52.600;13.328;2023-02-21T09:43:52;5.10;;;1.20;;
2874;SDS011;1445;52.600;13.328;2023-02-21T09:46:04;6.38;;;1.50;;
2874;SDS011;1445;52.600;13.328;2023-02-21T09:48:34;6.75;;;2.17;;
2874;SDS011;1445;52.600;13.328;2023-02-21T09:51:01;7.03;;;1.40;;
2874;SDS011;1445;52.600;13.328;2023-02-21T09:53:30;9.43;;;1.60;;
2874;SDS011;1445;52.600;13.328;2023-02-21T09:56:10;9.20;;;2.53;;
2874;SDS011;1445;52.600;13.328;2023-02-21T09:58:38;6.55;;;1.50;;
2874;SDS011;1445;52.600;13.328;2023-02-21T10:01:12;6.55;;;1.67;;
2874;SDS011;1445;52.600;13.328;2023-02-21T10:04:02;10.93;;;2.45;;
2874;SDS011;1445;52.600;13.328;2023-02-21T10:09:15;8.20;;;1.92;;
2874;SDS011;1445;52.600;13.328;2023-02-21T10:12:28;8.05;;;1.58;;
2874;SDS011;1445;52.600;13.328;2023-02-21T10:15:11;6.20;;;1.50;;
2874;SDS011;1445;52.600;13.328;2023-02-21T10:17:43;10.27;;;1.88;;
2874;SDS011;1445;52.600;13.328;2023-02-21T10:20:29;8.05;;;1.67;;
2874;SDS011;1445;52.600;13.328;2023-02-21T10:22:59;6.15;;;1.55;;
2874;SDS011;1445;52.600;13.328;2023-02-21T10:25:30;10.95;;;2.05;;
2874;SDS011;1445;52.600;13.328;2023-02-21T10:27:58;5.45;;;1.33;;
2874;SDS011;1445;52.600;13.328;2023-02-21T10:30:35;12.23;;;1.70;;
2874;SDS011;1445;52.600;13.328;2023-02-21T10:33:04;7.47;;;1.88;;
2874;SDS011;1445;52.600;13.328;2023-02-21T10:35:31;8.85;;;1.55;;
2874;SDS011;1445;52.600;13.328;2023-02-21T10:37:58;10.50;;;3.25;;
2874;SDS011;1445;52.600;13.328;2023-02-21T10:40:42;7.82;;;1.70;;
2874;SDS011;1445;52.600;13.328;2023-02-21T10:43:15;7.53;;;1.75;;
2874;SDS011;1445;52.600;13.328;2023-02-21T10:54:32;6.57;;;1.77;;
2874;SDS011;1445;52.600;13.328;2023-02-21T10:56:58;7.50;;;2.20;;
2874;SDS011;1445;52.600;13.328;2023-02-21T10:59:29;6.78;;;2.03;;
2874;SDS011;1445;52.600;13.328;2023-02-21T11:01:57;7.85;;;1.58;;
2874;SDS011;1445;52.600;13.328;2023-02-21T11:04:34;6.75;;;1.60;;
2874;SDS011;1445;52.600;13.328;2023-02-21T11:07:05;10.20;;;2.35;;
2874;SDS011;1445;52.600;13.328;2023-02-21T11:09:34;8.88;;;1.92;;
2874;SDS011;1445;52.600;13.328;2023-02-21T11:14:31;6.80;;;1.90;;
2874;SDS011;1445;52.600;13.328;2023-02-21T11:17:40;6.80;;;1.40;;
2874;SDS011;1445;52.600;13.328;2023-02-21T11:22:19;9.35;;;1.83;;
2874;SDS011;1445;52.600;13.328;2023-02-21T11:24:56;6.72;;;2.08;;
2874;SDS011;1445;52.600;13.328;2023-02-21T11:27:26;8.90;;;1.95;;
2874;SDS011;1445;52.600;13.328;2023-02-21T11:29:53;9.00;;;1.55;;
2874;SDS011;1445;52.600;13.328;2023-02-21T11:32:27;11.20;;;1.98;;
2874;SDS011;1445;52.600;13.328;2023-02-21T11:35:28;7.35;;;1.73;;
2874;SDS011;1445;52.600;13.328;2023-02-21T11:37:49;11.25;;;2.00;;
2874;SDS011;1445;52.600;13.328;2023-02-21T11:40:26;10.20;;;2.25;;
2874;SDS011;1445;52.600;13.328;2023-02-21T11:43:10;7.20;;;2.45;;
2874;SDS011;1445;52.600;13.328;2023-02-21T11:45:35;9.63;;;1.80;;
2874;SDS011;1445;52.600;13.328;2023-02-21T11:48:10;8.13;;;1.83;;
2874;SDS011;1445;52.600;13.328;2023-02-21T11:50:41;5.75;;;1.70;;
2874;SDS011;1445;52.600;13.328;2023-02-21T11:53:21;7.63;;;1.90;;
2874;SDS011;1445;52.600;13.328;2023-02-21T11:55:58;9.60;;;2.42;;
2874;SDS011;1445;52.600;13.328;2023-02-21T11:59:00;7.70;;;1.98;;
2874;SDS011;1445;52.600;13.328;2023-02-21T12:44:35;13.73;;;2.25;;
2874;SDS011;1445;52.600;13.328;2023-02-21T12:52:31;10.00;;;2.35;;
2874;SDS011;1445;52.600;13.328;2023-02-21T13:02:51;12.20;;;1.98;;
2874;SDS011;1445;52.600;13.328;2023-02-21T13:05:26;5.50;;;2.20;;
2874;SDS011;1445;52.600;13.328;2023-02-21T13:13:27;9.40;;;1.85;;
2874;SDS011;1445;52.600;13.328;2023-02-21T13:15:56;10.77;;;2.60;;
2874;SDS011;1445;52.600;13.328;2023-02-21T13:24:05;8.65;;;1.75;;
2874;SDS011;1445;52.600;13.328;2023-02-21T13:26:57;10.18;;;2.45;;
2874;SDS011;1445;52.600;13.328;2023-02-21T13:29:44;9.57;;;2.22;;
2874;SDS011;1445;52.600;13.328;2023-02-21T13:32:13;7.60;;;2.40;;
2874;SDS011;1445;52.600;13.328;2023-02-21T13:34:59;7.85;;;2.08;;
2874;SDS011;1445;52.600;13.328;2023-02-21T13:37:30;11.90;;;2.65;;
2874;SDS011;1445;52.600;13.328;2023-02-21T13:39:59;14.45;;;3.63;;
2874;SDS011;1445;52.600;13.328;2023-02-21T13:42:32;8.80;;;2.05;;
2874;SDS011;1445;52.600;13.328;2023-02-21T13:51:03;11.10;;;2.38;;
2874;SDS011;1445;52.600;13.328;2023-02-21T14:03:42;8.45;;;2.17;;
2874;SDS011;1445;52.600;13.328;2023-02-21T14:08:41;7.75;;;2.13;;
2874;SDS011;1445;52.600;13.328;2023-02-21T14:11:14;8.98;;;2.13;;
2874;SDS011;1445;52.600;13.328;2023-02-21T14:21:03;22.02;;;3.92;;
2874;SDS011;1445;52.600;13.328;2023-02-21T14:23:38;12.68;;;2.38;;
2874;SDS011;1445;52.600;13.328;2023-02-21T14:26:32;9.45;;;1.95;;
2874;SDS011;1445;52.600;13.328;2023-02-21T14:31:48;11.38;;;2.50;;
2874;SDS011;1445;52.600;13.328;2023-02-21T14:37:21;7.90;;;2.30;;
2874;SDS011;1445;52.600;13.328;2023-02-21T14:42:45;12.82;;;2.13;;
2874;SDS011;1445;52.600;13.328;2023-02-21T14:45:17;12.43;;;2.33;;
2874;SDS011;1445;52.600;13.328;2023-02-21T15:06:51;13.67;;;2.40;;
2874;SDS011;1445;52.600;13.328;2023-02-21T15:09:24;8.65;;;2.45;;
2874;SDS011;1445;52.600;13.328;2023-02-21T15:11:49;11.00;;;2.70;;
2874;SDS011;1445;52.600;13.328;2023-02-21T15:14:22;8.45;;;2.17;;
2874;SDS011;1445;52.600;13.328;2023-02-21T15:16:52;7.55;;;2.20;;
2874;SDS011;1445;52.600;13.328;2023-02-21T15:19:23;11.50;;;2.15;;
2874;SDS011;1445;52.600;13.328;2023-02-21T15:24:31;11.32;;;2.80;;
2874;SDS011;1445;52.600;13.328;2023-02-21T15:27:10;13.25;;;2.70;;
2874;SDS011;1445;52.600;13.328;2023-02-21T15:29:37;8.95;;;2.20;;
2874;SDS011;1445;52.600;13.328;2023-02-21T15:32:03;15.05;;;3.20;;
2874;SDS011;1445;52.600;13.328;2023-02-21T15:34:32;10.60;;;2.40;;
2874;SDS011;1445;52.600;13.328;2023-02-21T15:37:07;12.50;;;2.97;;
2874;SDS011;1445;52.600;13.328;2023-02-21T15:39:56;12.35;;;2.13;;
2874;SDS011;1445;52.600;13.328;2023-02-21T15:42:25;13.80;;;3.00;;
2874;SDS011;1445;52.600;13.328;2023-02-21T15:44:57;11.10;;;2.47;;
2874;SDS011;1445;52.600;13.328;2023-02-21T15:47:26;13.38;;;2.30;;
2874;SDS011;1445;52.600;13.328;2023-02-21T15:58:01;10.15;;;2.17;;
2874;SDS011;1445;52.600;13.328;2023-02-21T16:05:49;11.63;;;2.88;;
2874;SDS011;1445;52.600;13.328;2023-02-21T16:08:15;10.02;;;2.50;;
2874;SDS011;1445;52.600;13.328;2023-02-21T16:10:41;15.65;;;3.03;;
2874;SDS011;1445;52.600;13.328;2023-02-21T16:13:08;8.68;;;2.05;;
2874;SDS011;1445;52.600;13.328;2023-02-21T16:15:34;10.65;;;2.60;;
2874;SDS011;1445;52.600;13.328;2023-02-21T16:18:05;14.45;;;3.33;;
2874;SDS011;1445;52.600;13.328;2023-02-21T16:20:33;19.45;;;4.60;;
2874;SDS011;1445;52.600;13.328;2023-02-21T16:28:37;9.77;;;2.85;;
2874;SDS011;1445;52.600;13.328;2023-02-21T16:31:05;13.63;;;3.50;;
2874;SDS011;1445;52.600;13.328;2023-02-21T16:33:33;13.00;;;2.40;;
2874;SDS011;1445;52.600;13.328;2023-02-21T16:35:59;19.13;;;3.35;;
2874;SDS011;1445;52.600;13.328;2023-02-21T16:38:29;10.23;;;3.20;;
2874;SDS011;1445;52.600;13.328;2023-02-21T16:40:55;13.45;;;3.08;;
2874;SDS011;1445;52.600;13.328;2023-02-21T16:45:47;16.90;;;3.75;;
2874;SDS011;1445;52.600;13.328;2023-02-21T16:48:20;14.85;;;3.10;;
2874;SDS011;1445;52.600;13.328;2023-02-21T16:50:48;17.25;;;3.83;;
2874;SDS011;1445;52.600;13.328;2023-02-21T16:53:15;13.70;;;3.90;;
2874;SDS011;1445;52.600;13.328;2023-02-21T16:55:42;11.35;;;2.72;;
2874;SDS011;1445;52.600;13.328;2023-02-21T17:00:54;16.83;;;3.58;;
2874;SDS011;1445;52.600;13.328;2023-02-21T17:03:23;13.80;;;3.37;;
2874;SDS011;1445;52.600;13.328;2023-02-21T17:05:49;13.10;;;3.40;;
2874;SDS011;1445;52.600;13.328;2023-02-21T17:08:16;15.82;;;3.05;;
2874;SDS011;1445;52.600;13.328;2023-02-21T17:10:42;14.50;;;3.35;;
2874;SDS011;1445;52.600;13.328;2023-02-21T17:13:07;13.50;;;3.25;;
2874;SDS011;1445;52.600;13.328;2023-02-21T17:15:33;11.10;;;2.83;;
2874;SDS011;1445;52.600;13.328;2023-02-21T17:17:59;8.02;;;2.65;;
2874;SDS011;1445;52.600;13.328;2023-02-21T17:20:25;9.85;;;2.95;;
2874;SDS011;1445;52.600;13.328;2023-02-21T17:22:51;10.90;;;2.97;;
2874;SDS011;1445;52.600;13.328;2023-02-21T17:25:18;8.73;;;2.58;;
2874;SDS011;1445;52.600;13.328;2023-02-21T17:27:44;12.20;;;2.70;;
2874;SDS011;1445;52.600;13.328;2023-02-21T17:30:10;9.52;;;3.40;;
2874;SDS011;1445;52.600;13.328;2023-02-21T17:32:36;14.50;;;3.90;;
2874;SDS011;1445;52.600;13.328;2023-02-21T17:35:02;10.80;;;3.33;;
2874;SDS011;1445;52.600;13.328;2023-02-21T17:37:27;9.15;;;3.03;;
2874;SDS011;1445;52.600;13.328;2023-02-21T17:39:53;21.92;;;4.47;;
2874;SDS011;1445;52.600;13.328;2023-02-21T17:42:20;17.73;;;3.22;;
2874;SDS011;1445;52.600;13.328;2023-02-21T17:44:46;14.57;;;3.22;;
2874;SDS011;1445;52.600;13.328;2023-02-21T17:47:12;14.98;;;2.97;;
2874;SDS011;1445;52.600;13.328;2023-02-21T17:49:38;11.98;;;2.97;;
2874;SDS011;1445;52.600;13.328;2023-02-21T17:52:04;18.13;;;3.75;;
2874;SDS011;1445;52.600;13.328;2023-02-21T17:54:29;13.68;;;3.13;;
2874;SDS011;1445;52.600;13.328;2023-02-21T17:56:55;19.00;;;4.28;;
2874;SDS011;1445;52.600;13.328;2023-02-21T17:59:20;10.45;;;3.15;;
2874;SDS011;1445;52.600;13.328;2023-02-21T18:01:46;11.98;;;3.63;;
2874;SDS011;1445;52.600;13.328;2023-02-21T18:04:12;13.90;;;4.55;;
2874;SDS011;1445;52.600;13.328;2023-02-21T18:06:38;11.27;;;3.83;;
2874;SDS011;1445;52.600;13.328;2023-02-21T18:09:04;12.32;;;3.13;;
2874;SDS011;1445;52.600;13.328;2023-02-21T18:11:31;10.40;;;3.60;;
2874;SDS011;1445;52.600;13.328;2023-02-21T18:13:59;13.60;;;3.53;;
2874;SDS011;1445;52.600;13.328;2023-02-21T18:16:24;14.30;;;4.30;;
2874;SDS011;1445;52.600;13.328;2023-02-21T18:18:50;14.05;;;3.22;;
2874;SDS011;1445;52.600;13.328;2023-02-21T18:21:16;13.00;;;3.03;;
2874;SDS011;1445;52.600;13.328;2023-02-21T18:23:43;14.75;;;3.45;;
2874;SDS011;1445;52.600;13.328;2023-02-21T18:26:09;17.08;;;3.80;;
2874;SDS011;1445;52.600;13.328;2023-02-21T18:28:35;12.65;;;4.18;;
2874;SDS011;1445;52.600;13.328;2023-02-21T18:31:00;14.30;;;3.78;;
2874;SDS011;1445;52.600;13.328;2023-02-21T18:33:26;13.13;;;4.32;;
2874;SDS011;1445;52.600;13.328;2023-02-21T18:35:52;14.77;;;4.95;;
2874;SDS011;1445;52.600;13.328;2023-02-21T18:38:21;18.48;;;5.47;;
2874;SDS011;1445;52.600;13.328;2023-02-21T18:40:48;12.25;;;4.85;;
2874;SDS011;1445;52.600;13.328;2023-02-21T18:43:15;12.23;;;4.90;;
2874;SDS011;1445;52.600;13.328;2023-02-21T18:45:46;13.65;;;4.85;;
2874;SDS011;1445;52.600;13.328;2023-02-21T18:48:13;18.35;;;4.93;;
2874;SDS011;1445;52.600;13.328;2023-02-21T18:50:39;11.18;;;4.05;;
2874;SDS011;1445;52.600;13.328;2023-02-21T18:53:05;9.18;;;3.72;;
2874;SDS011;1445;52.600;13.328;2023-02-21T18:55:31;11.52;;;4.13;;
2874;SDS011;1445;52.600;13.328;2023-02-21T18:57:56;15.23;;;3.85;;
2874;SDS011;1445;52.600;13.328;2023-02-21T19:00:23;11.93;;;4.18;;
2874;SDS011;1445;52.600;13.328;2023-02-21T19:02:50;14.10;;;3.55;;
2874;SDS011;1445;52.600;13.328;2023-02-21T19:05:19;11.90;;;3.78;;
2874;SDS011;1445;52.600;13.328;2023-02-21T19:07:46;18.52;;;5.53;;
2874;SDS011;1445;52.600;13.328;2023-02-21T19:10:13;15.35;;;3.80;;
2874;SDS011;1445;52.600;13.328;2023-02-21T19:12:41;16.45;;;4.00;;
2874;SDS011;1445;52.600;13.328;2023-02-21T19:15:07;15.52;;;4.75;;
2874;SDS011;1445;52.600;13.328;2023-02-21T19:17:33;13.10;;;4.38;;
2874;SDS011;1445;52.600;13.328;2023-02-21T19:19:59;13.45;;;3.45;;
2874;SDS011;1445;52.600;13.328;2023-02-21T19:22:24;19.83;;;4.88;;
2874;SDS011;1445;52.600;13.328;2023-02-21T19:24:50;21.92;;;5.00;;
2874;SDS011;1445;52.600;13.328;2023-02-21T19:27:16;17.52;;;4.82;;
2874;SDS011;1445;52.600;13.328;2023-02-21T19:29:41;14.57;;;2.90;;
2874;SDS011;1445;52.600;13.328;2023-02-21T19:32:07;16.75;;;3.47;;
2874;SDS011;1445;52.600;13.328;2023-02-21T19:34:33;14.20;;;3.50;;
2874;SDS011;1445;52.600;13.328;2023-02-21T19:36:59;15.65;;;3.70;;
2874;SDS011;1445;52.600;13.328;2023-02-21T19:39:24;11.00;;;3.85;;
2874;SDS011;1445;52.600;13.328;2023-02-21T19:41:50;12.77;;;4.13;;
2874;SDS011;1445;52.600;13.328;2023-02-21T19:44:16;12.55;;;3.40;;
2874;SDS011;1445;52.600;13.328;2023-02-21T19:46:41;20.30;;;4.80;;
2874;SDS011;1445;52.600;13.328;2023-02-21T19:49:08;12.05;;;4.30;;
2874;SDS011;1445;52.600;13.328;2023-02-21T19:51:44;16.98;;;4.55;;
2874;SDS011;1445;52.600;13.328;2023-02-21T19:54:11;13.77;;;3.65;;
2874;SDS011;1445;52.600;13.328;2023-02-21T19:56:38;14.32;;;3.90;;
2874;SDS011;1445;52.600;13.328;2023-02-21T19:59:04;11.60;;;3.80;;
2874;SDS011;1445;52.600;13.328;2023-02-21T20:01:30;18.13;;;4.47;;
2874;SDS011;1445;52.600;13.328;2023-02-21T20:03:56;13.60;;;3.80;;
2874;SDS011;1445;52.600;13.328;2023-02-21T20:06:26;16.45;;;4.13;;
2874;SDS011;1445;52.600;13.328;2023-02-21T20:08:52;12.32;;;3.85;;